»·PEaware :: N9030C KSBA-KBUR

N9030C :: KSBA-KBUR

FLIGHT INFORMATION

Flight Status: Arrived
Operator: Privately registered:
United States
More flights under this callsign
Pilot: Craig B. (17555)
Aircraft: CESSNA 172 SKYHAWK
(C172)
More flights by this aircraft type
Origin: KSBA Santa Barbara Mun
United States
Destination: KBUR Bob Hope-Burbank
United States
More flights between these airports :: More routes between these airports
Route: DEANO FIM
File this flight plan on PilotEdge
Remarks: CAT-8 RATING FLIGHT
Altitude:
(Current/Filed)
5,500ft
Speed:
(Current/Filed)
115kts
Departed: 02-Jan-18 03:57 PM
Arrived: 02-Jan-18 04:45 PM
Distance/Time
Traveled:
74nm/0:47
Distance/Time
To Go:
Arrived

Flight Plot

Page will automatically refresh every two minutes.

Flight plan parsing failed; only flown route is shown


Map Options




Map Legend


Flown Route
Filed Route
Departure Airport
Arrival Airport
Navaid (VOR, NDB)
Fix

Horizontal Profiles

Position Reports

Time Latitude Longitude Heading Altitude Ground
Speed
02-Jan-18 15:48 34.422664 -119.835594 340 16ft 0kts
02-Jan-18 15:49 34.422664 -119.835594 340 16ft 0kts
02-Jan-18 15:50 34.422664 -119.835594 340 16ft 0kts
02-Jan-18 15:51 34.422664 -119.835594 340 16ft 0kts
02-Jan-18 15:52 34.422664 -119.835594 340 16ft 0kts
02-Jan-18 15:53 34.422664 -119.835594 340 16ft 0kts
02-Jan-18 15:54 34.422664 -119.835594 340 16ft 0kts
02-Jan-18 15:55 34.422664 -119.835594 340 16ft 0kts
02-Jan-18 15:56 34.422664 -119.835594 340 16ft 0kts
02-Jan-18 15:57 34.422664 -119.835594 340 16ft 0kts
02-Jan-18 15:58 34.424291 -119.837595 347 16ft 12kts
02-Jan-18 15:59 34.426336 -119.838217 358 16ft 13kts
02-Jan-18 16:00 34.427053 -119.834624 358 16ft 0kts
02-Jan-18 16:01 34.427052 -119.834624 358 16ft 0kts
02-Jan-18 16:02 34.427550 -119.834741 335 16ft 15kts
02-Jan-18 16:03 34.427822 -119.848866 269 238ft 85kts
02-Jan-18 16:04 34.427797 -119.882493 265 798ft 108kts
02-Jan-18 16:05 34.426177 -119.919288 265 1399ft 109kts
02-Jan-18 16:06 34.439105 -119.946840 13 1693ft 119kts
02-Jan-18 16:07 34.442614 -119.911925 124 2243ft 117kts
02-Jan-18 16:08 34.422064 -119.881694 132 2843ft 115kts
02-Jan-18 16:09 34.405876 -119.850394 81 3407ft 114kts
02-Jan-18 16:10 34.410800 -119.811220 90 3809ft 120kts
02-Jan-18 16:11 34.406144 -119.771119 102 4210ft 119kts
02-Jan-18 16:12 34.397942 -119.733084 106 4608ft 114kts
02-Jan-18 16:13 34.389031 -119.696622 107 5010ft 112kts
02-Jan-18 16:14 34.379934 -119.660713 107 5412ft 111kts
02-Jan-18 16:15 34.370069 -119.622344 107 5483ft 125kts
02-Jan-18 16:16 34.359483 -119.581465 107 5483ft 125kts
02-Jan-18 16:17 34.349342 -119.542280 107 5483ft 121kts
02-Jan-18 16:18 34.339310 -119.503507 107 5483ft 120kts
02-Jan-18 16:19 34.329271 -119.464757 107 5492ft 120kts
02-Jan-18 16:20 34.319216 -119.426008 107 5493ft 120kts
02-Jan-18 16:21 34.319248 -119.385889 83 5493ft 120kts
02-Jan-18 16:22 34.322282 -119.344946 84 5492ft 125kts
02-Jan-18 16:23 34.325442 -119.303057 84 5491ft 126kts
02-Jan-18 16:24 34.328554 -119.261751 83 5491ft 122kts
02-Jan-18 16:25 34.331679 -119.220508 83 5492ft 123kts
02-Jan-18 16:26 34.334803 -119.178994 83 5492ft 124kts
02-Jan-18 16:27 34.337928 -119.137246 83 5492ft 124kts
02-Jan-18 16:28 34.341029 -119.095631 83 5492ft 124kts
02-Jan-18 16:29 34.344119 -119.053979 83 5492ft 124kts
02-Jan-18 16:30 34.347194 -119.012331 83 5509ft 123kts
02-Jan-18 16:31 34.350255 -118.970723 83 5510ft 124kts
02-Jan-18 16:32 34.353281 -118.929246 83 5510ft 123kts
02-Jan-18 16:33 34.356245 -118.888149 84 5510ft 122kts
02-Jan-18 16:34 34.347032 -118.848625 109 5510ft 123kts
02-Jan-18 16:35 34.335526 -118.809687 109 5510ft 123kts
02-Jan-18 16:36 34.323887 -118.770532 106 5483ft 122kts
02-Jan-18 16:37 34.312610 -118.732533 106 5483ft 119kts
02-Jan-18 16:38 34.301459 -118.695036 106 5483ft 118kts
02-Jan-18 16:39 34.290211 -118.657332 107 5357ft 117kts
02-Jan-18 16:40 34.279768 -118.622466 106 4856ft 107kts
02-Jan-18 16:41 34.270057 -118.589585 99 4507ft 105kts
02-Jan-18 16:42 34.270317 -118.550719 88 4189ft 110kts
02-Jan-18 16:43 34.270493 -118.513794 88 3395ft 110kts
02-Jan-18 16:44 34.270670 -118.477045 88 2607ft 110kts
02-Jan-18 16:45 34.267324 -118.440205 97 1844ft 109kts
02-Jan-18 16:46 34.263817 -118.410472 97 1815ft 78kts
02-Jan-18 16:47 34.254528 -118.386635 129 1831ft 68kts
02-Jan-18 16:48 34.240684 -118.370666 149 1494ft 70kts
02-Jan-18 16:49 34.222618 -118.363342 166 1009ft 66kts
02-Jan-18 16:50 34.205859 -118.358706 165 735ft 52kts
02-Jan-18 16:51 34.198902 -118.359400 273 734ft 27kts
02-Jan-18 16:52 34.200408 -118.364704 123 734ft 14kts
02-Jan-18 16:53 34.200302 -118.364660 183 734ft 0kts
02-Jan-18 16:54 34.200302 -118.364660 183 734ft 0kts
02-Jan-18 16:55 34.200302 -118.364660 183 734ft 0kts

Navigation Log

Ident Type
Flight plan parsing failed, navigation log unavailable